Terminal Aerodrome Forecast
Issued by NWS

Home | Current Version | Previous Version | Text Only | Print | Product List | Glossary On
Versions: 1 2 3 4 5 6 7 8 9 10 11 12 13 14 15
000
FTUS46 KSEW 160700 AAA
TAFHQM
TAF AMD
KHQM 160707Z 1607/1706 18010KT 5SM BR OVC012
     FM162000 23007KT P6SM BKN015 BKN150
      TEMPO 1620/1624 SCT020 BKN150=

USA.gov is the U.S. government's official web portal to all federal, state and local government web resources and services.